Aviation Digital Data Service (ADDS)

Output produced by METARs form (1423 UTC 24 August 2019)
found at http://www.aviationweather.gov/metar/data/
 
METAR text: FMEE 241400Z AUTO 10008KT 9999 FEW084 23/18 Q1019 NOSIG
Conditions at: FMEE (ST. DENIS/GILLOT, FR) observed 1400 UTC 24 August 2019
Temperature: 23.0°C (73°F)
Dewpoint: 18.0°C (64°F) [RH = 73%]
Pressure (altimeter): 30.09 inches Hg (1019.0 mb)
Winds: from the E (100 degrees) at 9 MPH (8 knots; 4.1 m/s)
Visibility: 6 or more miles (10+ km)
Ceiling: at least 12,000 feet AGL
Clouds: few clouds at 8400 feet AGL
Weather: no significant weather observed at this time

METAR text: FMEE 241330Z AUTO 10011KT 9999 SCT047 23/17 Q1019 NOSIG
Conditions at: FMEE (ST. DENIS/GILLOT, FR) observed 1330 UTC 24 August 2019
Temperature: 23.0°C (73°F)
Dewpoint: 17.0°C (63°F) [RH = 69%]
Pressure (altimeter): 30.09 inches Hg (1019.0 mb)
Winds: from the E (100 degrees) at 13 MPH (11 knots; 5.7 m/s)
Visibility: 6 or more miles (10+ km)
Ceiling: at least 12,000 feet AGL
Clouds: scattered clouds at 4700 feet AGL
Weather: no significant weather observed at this time

METAR text: FMEE 241300Z AUTO 11012KT 9999 OVC047 24/17 Q1019 NOSIG
Conditions at: FMEE (ST. DENIS/GILLOT, FR) observed 1300 UTC 24 August 2019
Temperature: 24.0°C (75°F)
Dewpoint: 17.0°C (63°F) [RH = 65%]
Pressure (altimeter): 30.09 inches Hg (1019.0 mb)
Winds: from the ESE (110 degrees) at 14 MPH (12 knots; 6.2 m/s)
Visibility: 6 or more miles (10+ km)
Ceiling: 4700 feet AGL
Clouds: overcast cloud deck at 4700 feet AGL
Weather: no significant weather observed at this time

METAR text: FMEE 241230Z AUTO 09012KT 9999 BKN045 25/17 Q1019 NOSIG
Conditions at: FMEE (ST. DENIS/GILLOT, FR) observed 1230 UTC 24 August 2019
Temperature: 25.0°C (77°F)
Dewpoint: 17.0°C (63°F) [RH = 61%]
Pressure (altimeter): 30.09 inches Hg (1019.0 mb)
Winds: from the E (90 degrees) at 14 MPH (12 knots; 6.2 m/s)
Visibility: 6 or more miles (10+ km)
Ceiling: 4500 feet AGL
Clouds: broken clouds at 4500 feet AGL
Weather: no significant weather observed at this time

METAR text: FMEE 241200Z AUTO 08013KT 9999 BKN045 BKN220 25/16 Q1019 NOSIG
Conditions at: FMEE (ST. DENIS/GILLOT, FR) observed 1200 UTC 24 August 2019
Temperature: 25.0°C (77°F)
Dewpoint: 16.0°C (61°F) [RH = 57%]
Pressure (altimeter): 30.09 inches Hg (1019.0 mb)
Winds: from the E (80 degrees) at 15 MPH (13 knots; 6.7 m/s)
Visibility: 6 or more miles (10+ km)
Ceiling: 4500 feet AGL
Clouds: broken clouds at 4500 feet AGL
broken clouds at 22000 feet AGL
Weather: no significant weather observed at this time

METAR text: FMEE 241130Z AUTO 07015KT 9999 BKN045 26/16 Q1019 NOSIG
Conditions at: FMEE (ST. DENIS/GILLOT, FR) observed 1130 UTC 24 August 2019
Temperature: 26.0°C (79°F)
Dewpoint: 16.0°C (61°F) [RH = 54%]
Pressure (altimeter): 30.09 inches Hg (1019.0 mb)
Winds: from the ENE (70 degrees) at 17 MPH (15 knots; 7.7 m/s)
Visibility: 6 or more miles (10+ km)
Ceiling: 4500 feet AGL
Clouds: broken clouds at 4500 feet AGL
Weather: no significant weather observed at this time

METAR text: FMEE 241100Z AUTO 07015KT 9999 BKN045 27/16 Q1019 NOSIG
Conditions at: FMEE (ST. DENIS/GILLOT, FR) observed 1100 UTC 24 August 2019
Temperature: 27.0°C (81°F)
Dewpoint: 16.0°C (61°F) [RH = 51%]
Pressure (altimeter): 30.09 inches Hg (1019.0 mb)
Winds: from the ENE (70 degrees) at 17 MPH (15 knots; 7.7 m/s)
Visibility: 6 or more miles (10+ km)
Ceiling: 4500 feet AGL
Clouds: broken clouds at 4500 feet AGL
Weather: no significant weather observed at this time

METAR text: FMEE 241030Z AUTO 06012KT 9999 BKN046 27/17 Q1019 NOSIG
Conditions at: FMEE (ST. DENIS/GILLOT, FR) observed 1030 UTC 24 August 2019
Temperature: 27.0°C (81°F)
Dewpoint: 17.0°C (63°F) [RH = 54%]
Pressure (altimeter): 30.09 inches Hg (1019.0 mb)
Winds: from the ENE (60 degrees) at 14 MPH (12 knots; 6.2 m/s)
Visibility: 6 or more miles (10+ km)
Ceiling: 4600 feet AGL
Clouds: broken clouds at 4600 feet AGL
Weather: no significant weather observed at this time

METAR text: FMEE 241000Z AUTO 07012KT 9999 OVC045 26/18 Q1019 NOSIG
Conditions at: FMEE (ST. DENIS/GILLOT, FR) observed 1000 UTC 24 August 2019
Temperature: 26.0°C (79°F)
Dewpoint: 18.0°C (64°F) [RH = 61%]
Pressure (altimeter): 30.09 inches Hg (1019.0 mb)
Winds: from the ENE (70 degrees) at 14 MPH (12 knots; 6.2 m/s)
Visibility: 6 or more miles (10+ km)
Ceiling: 4500 feet AGL
Clouds: overcast cloud deck at 4500 feet AGL
Weather: no significant weather observed at this time

METAR text: FMEE 240930Z AUTO 07011KT 9999 BKN041 27/18 Q1020 NOSIG
Conditions at: FMEE (ST. DENIS/GILLOT, FR) observed 0930 UTC 24 August 2019
Temperature: 27.0°C (81°F)
Dewpoint: 18.0°C (64°F) [RH = 58%]
Pressure (altimeter): 30.12 inches Hg (1020.0 mb)
Winds: from the ENE (70 degrees) at 13 MPH (11 knots; 5.7 m/s)
Visibility: 6 or more miles (10+ km)
Ceiling: 4100 feet AGL
Clouds: broken clouds at 4100 feet AGL
Weather: no significant weather observed at this time

METAR text: FMEE 240900Z AUTO 07012KT 9999 BKN040 26/18 Q1020 NOSIG
Conditions at: FMEE (ST. DENIS/GILLOT, FR) observed 0900 UTC 24 August 2019
Temperature: 26.0°C (79°F)
Dewpoint: 18.0°C (64°F) [RH = 61%]
Pressure (altimeter): 30.12 inches Hg (1020.0 mb)
Winds: from the ENE (70 degrees) at 14 MPH (12 knots; 6.2 m/s)
Visibility: 6 or more miles (10+ km)
Ceiling: 4000 feet AGL
Clouds: broken clouds at 4000 feet AGL
Weather: no significant weather observed at this time

METAR text: FMEE 240830Z AUTO 07013KT CAVOK 26/18 Q1020 NOSIG
Conditions at: FMEE (ST. DENIS/GILLOT, FR) observed 0830 UTC 24 August 2019
Temperature: 26.0°C (79°F)
Dewpoint: 18.0°C (64°F) [RH = 61%]
Pressure (altimeter): 30.12 inches Hg (1020.0 mb)
Winds: from the ENE (70 degrees) at 15 MPH (13 knots; 6.7 m/s)
Visibility: 6 or more miles (10+ km)
Ceiling: ceiling and visibility are OK
Clouds: unknown
Weather: no significant weather observed at this time

METAR text: FMEE 240800Z AUTO 07013KT CAVOK 26/19 Q1020 NOSIG
Conditions at: FMEE (ST. DENIS/GILLOT, FR) observed 0800 UTC 24 August 2019
Temperature: 26.0°C (79°F)
Dewpoint: 19.0°C (66°F) [RH = 65%]
Pressure (altimeter): 30.12 inches Hg (1020.0 mb)
Winds: from the ENE (70 degrees) at 15 MPH (13 knots; 6.7 m/s)
Visibility: 6 or more miles (10+ km)
Ceiling: ceiling and visibility are OK
Clouds: unknown
Weather: no significant weather observed at this time

METAR text: FMEE 240730Z AUTO 07013KT CAVOK 26/18 Q1021 NOSIG
Conditions at: FMEE (ST. DENIS/GILLOT, FR) observed 0730 UTC 24 August 2019
Temperature: 26.0°C (79°F)
Dewpoint: 18.0°C (64°F) [RH = 61%]
Pressure (altimeter): 30.15 inches Hg (1021.0 mb)
Winds: from the ENE (70 degrees) at 15 MPH (13 knots; 6.7 m/s)
Visibility: 6 or more miles (10+ km)
Ceiling: ceiling and visibility are OK
Clouds: unknown
Weather: no significant weather observed at this time

METAR text: FMEE 240700Z AUTO 07013KT CAVOK 26/18 Q1021 NOSIG
Conditions at: FMEE (ST. DENIS/GILLOT, FR) observed 0700 UTC 24 August 2019
Temperature: 26.0°C (79°F)
Dewpoint: 18.0°C (64°F) [RH = 61%]
Pressure (altimeter): 30.15 inches Hg (1021.0 mb)
Winds: from the ENE (70 degrees) at 15 MPH (13 knots; 6.7 m/s)
Visibility: 6 or more miles (10+ km)
Ceiling: ceiling and visibility are OK
Clouds: unknown
Weather: no significant weather observed at this time

METAR text: FMEE 240630Z AUTO 07010KT CAVOK 26/17 Q1021 NOSIG
Conditions at: FMEE (ST. DENIS/GILLOT, FR) observed 0630 UTC 24 August 2019
Temperature: 26.0°C (79°F)
Dewpoint: 17.0°C (63°F) [RH = 58%]
Pressure (altimeter): 30.15 inches Hg (1021.0 mb)
Winds: from the ENE (70 degrees) at 12 MPH (10 knots; 5.1 m/s)
Visibility: 6 or more miles (10+ km)
Ceiling: ceiling and visibility are OK
Clouds: unknown
Weather: no significant weather observed at this time

METAR text: FMEE 240600Z AUTO 04003KT 350V100 CAVOK 26/15 Q1021 BECMG 09018KT
Conditions at: FMEE (ST. DENIS/GILLOT, FR) observed 0600 UTC 24 August 2019
Temperature: 26.0°C (79°F)
Dewpoint: 15.0°C (59°F) [RH = 51%]
Pressure (altimeter): 30.15 inches Hg (1021.0 mb)
Winds: from the NE (40 degrees) at 3 MPH (3 knots; 1.5 m/s)
Visibility: 6 or more miles (10+ km)
Ceiling: ceiling and visibility are OK
Clouds: unknown
Weather: no significant weather observed at this time

METAR text: FMEE 240530Z AUTO 06004KT CAVOK 25/14 Q1021 BECMG 09018KT
Conditions at: FMEE (ST. DENIS/GILLOT, FR) observed 0530 UTC 24 August 2019
Temperature: 25.0°C (77°F)
Dewpoint: 14.0°C (57°F) [RH = 50%]
Pressure (altimeter): 30.15 inches Hg (1021.0 mb)
Winds: from the ENE (60 degrees) at 5 MPH (4 knots; 2.1 m/s)
Visibility: 6 or more miles (10+ km)
Ceiling: ceiling and visibility are OK
Clouds: unknown
Weather: no significant weather observed at this time

METAR text: FMEE 240500Z AUTO 06003KT 030V120 CAVOK 24/13 Q1021 BECMG 09015KT
Conditions at: FMEE (ST. DENIS/GILLOT, FR) observed 0500 UTC 24 August 2019
Temperature: 24.0°C (75°F)
Dewpoint: 13.0°C (55°F) [RH = 50%]
Pressure (altimeter): 30.15 inches Hg (1021.0 mb)
Winds: from the ENE (60 degrees) at 3 MPH (3 knots; 1.5 m/s)
Visibility: 6 or more miles (10+ km)
Ceiling: ceiling and visibility are OK
Clouds: unknown
Weather: no significant weather observed at this time

METAR text: FMEE 240430Z AUTO VRB02KT CAVOK 23/15 Q1021 BECMG 09015KT
Conditions at: FMEE (ST. DENIS/GILLOT, FR) observed 0430 UTC 24 August 2019
Temperature: 23.0°C (73°F)
Dewpoint: 15.0°C (59°F) [RH = 61%]
Pressure (altimeter): 30.15 inches Hg (1021.0 mb)
Winds: variable direction winds at 2 MPH (2 knots; 1.0 m/s)
Visibility: 6 or more miles (10+ km)
Ceiling: ceiling and visibility are OK
Clouds: unknown
Weather: no significant weather observed at this time

METAR text: FMEE 240400Z AUTO VRB02KT CAVOK 21/14 Q1021 NOSIG
Conditions at: FMEE (ST. DENIS/GILLOT, FR) observed 0400 UTC 24 August 2019
Temperature: 21.0°C (70°F)
Dewpoint: 14.0°C (57°F) [RH = 64%]
Pressure (altimeter): 30.15 inches Hg (1021.0 mb)
Winds: variable direction winds at 2 MPH (2 knots; 1.0 m/s)
Visibility: 6 or more miles (10+ km)
Ceiling: ceiling and visibility are OK
Clouds: unknown
Weather: no significant weather observed at this time

METAR text: FMEE 240330Z AUTO 19005KT CAVOK 18/13 Q1021 NOSIG
Conditions at: FMEE (ST. DENIS/GILLOT, FR) observed 0330 UTC 24 August 2019
Temperature: 18.0°C (64°F)
Dewpoint: 13.0°C (55°F) [RH = 73%]
Pressure (altimeter): 30.15 inches Hg (1021.0 mb)
Winds: from the S (190 degrees) at 6 MPH (5 knots; 2.6 m/s)
Visibility: 6 or more miles (10+ km)
Ceiling: ceiling and visibility are OK
Clouds: unknown
Weather: no significant weather observed at this time

METAR text: FMEE 240300Z AUTO 18007KT CAVOK 16/12 Q1021 NOSIG
Conditions at: FMEE (ST. DENIS/GILLOT, FR) observed 0300 UTC 24 August 2019
Temperature: 16.0°C (61°F)
Dewpoint: 12.0°C (54°F) [RH = 77%]
Pressure (altimeter): 30.15 inches Hg (1021.0 mb)
Winds: from the S (180 degrees) at 8 MPH (7 knots; 3.6 m/s)
Visibility: 6 or more miles (10+ km)
Ceiling: ceiling and visibility are OK
Clouds: unknown
Weather: no significant weather observed at this time

METAR text: FMEE 240230Z AUTO 18006KT CAVOK 16/12 Q1021 NOSIG
Conditions at: FMEE (ST. DENIS/GILLOT, FR) observed 0230 UTC 24 August 2019
Temperature: 16.0°C (61°F)
Dewpoint: 12.0°C (54°F) [RH = 77%]
Pressure (altimeter): 30.15 inches Hg (1021.0 mb)
Winds: from the S (180 degrees) at 7 MPH (6 knots; 3.1 m/s)
Visibility: 6 or more miles (10+ km)
Ceiling: ceiling and visibility are OK
Clouds: unknown
Weather: no significant weather observed at this time

METAR text: FMEE 240200Z AUTO 18006KT CAVOK 16/12 Q1020 NOSIG
Conditions at: FMEE (ST. DENIS/GILLOT, FR) observed 0200 UTC 24 August 2019
Temperature: 16.0°C (61°F)
Dewpoint: 12.0°C (54°F) [RH = 77%]
Pressure (altimeter): 30.12 inches Hg (1020.0 mb)
Winds: from the S (180 degrees) at 7 MPH (6 knots; 3.1 m/s)
Visibility: 6 or more miles (10+ km)
Ceiling: ceiling and visibility are OK
Clouds: unknown
Weather: no significant weather observed at this time

METAR text: FMEE 240130Z AUTO 18006KT CAVOK 16/12 Q1020 NOSIG
Conditions at: FMEE (ST. DENIS/GILLOT, FR) observed 0130 UTC 24 August 2019
Temperature: 16.0°C (61°F)
Dewpoint: 12.0°C (54°F) [RH = 77%]
Pressure (altimeter): 30.12 inches Hg (1020.0 mb)
Winds: from the S (180 degrees) at 7 MPH (6 knots; 3.1 m/s)
Visibility: 6 or more miles (10+ km)
Ceiling: ceiling and visibility are OK
Clouds: unknown
Weather: no significant weather observed at this time

METAR text: FMEE 240100Z AUTO 18006KT CAVOK 17/13 Q1020 NOSIG
Conditions at: FMEE (ST. DENIS/GILLOT, FR) observed 0100 UTC 24 August 2019
Temperature: 17.0°C (63°F)
Dewpoint: 13.0°C (55°F) [RH = 77%]
Pressure (altimeter): 30.12 inches Hg (1020.0 mb)
Winds: from the S (180 degrees) at 7 MPH (6 knots; 3.1 m/s)
Visibility: 6 or more miles (10+ km)
Ceiling: ceiling and visibility are OK
Clouds: unknown
Weather: no significant weather observed at this time

METAR text: FMEE 240030Z AUTO 18006KT CAVOK 17/13 Q1020 NOSIG
Conditions at: FMEE (ST. DENIS/GILLOT, FR) observed 0030 UTC 24 August 2019
Temperature: 17.0°C (63°F)
Dewpoint: 13.0°C (55°F) [RH = 77%]
Pressure (altimeter): 30.12 inches Hg (1020.0 mb)
Winds: from the S (180 degrees) at 7 MPH (6 knots; 3.1 m/s)
Visibility: 6 or more miles (10+ km)
Ceiling: ceiling and visibility are OK
Clouds: unknown
Weather: no significant weather observed at this time

METAR text: FMEE 240000Z AUTO 18006KT CAVOK 17/13 Q1020 NOSIG
Conditions at: FMEE (ST. DENIS/GILLOT, FR) observed 0000 UTC 24 August 2019
Temperature: 17.0°C (63°F)
Dewpoint: 13.0°C (55°F) [RH = 77%]
Pressure (altimeter): 30.12 inches Hg (1020.0 mb)
Winds: from the S (180 degrees) at 7 MPH (6 knots; 3.1 m/s)
Visibility: 6 or more miles (10+ km)
Ceiling: ceiling and visibility are OK
Clouds: unknown
Weather: no significant weather observed at this time

METAR text: FMEE 232330Z AUTO 18005KT CAVOK 17/13 Q1020 NOSIG
Conditions at: FMEE (ST. DENIS/GILLOT, FR) observed 2330 UTC 23 August 2019
Temperature: 17.0°C (63°F)
Dewpoint: 13.0°C (55°F) [RH = 77%]
Pressure (altimeter): 30.12 inches Hg (1020.0 mb)
Winds: from the S (180 degrees) at 6 MPH (5 knots; 2.6 m/s)
Visibility: 6 or more miles (10+ km)
Ceiling: ceiling and visibility are OK
Clouds: unknown
Weather: no significant weather observed at this time

METAR text: FMEE 232300Z AUTO 18006KT CAVOK 18/13 Q1020 NOSIG
Conditions at: FMEE (ST. DENIS/GILLOT, FR) observed 2300 UTC 23 August 2019
Temperature: 18.0°C (64°F)
Dewpoint: 13.0°C (55°F) [RH = 73%]
Pressure (altimeter): 30.12 inches Hg (1020.0 mb)
Winds: from the S (180 degrees) at 7 MPH (6 knots; 3.1 m/s)
Visibility: 6 or more miles (10+ km)
Ceiling: ceiling and visibility are OK
Clouds: unknown
Weather: no significant weather observed at this time

METAR text: FMEE 232230Z AUTO 19006KT CAVOK 18/13 Q1021 NOSIG
Conditions at: FMEE (ST. DENIS/GILLOT, FR) observed 2230 UTC 23 August 2019
Temperature: 18.0°C (64°F)
Dewpoint: 13.0°C (55°F) [RH = 73%]
Pressure (altimeter): 30.15 inches Hg (1021.0 mb)
Winds: from the S (190 degrees) at 7 MPH (6 knots; 3.1 m/s)
Visibility: 6 or more miles (10+ km)
Ceiling: ceiling and visibility are OK
Clouds: unknown
Weather: no significant weather observed at this time

METAR text: FMEE 232200Z AUTO 19007KT CAVOK 17/13 Q1021 NOSIG
Conditions at: FMEE (ST. DENIS/GILLOT, FR) observed 2200 UTC 23 August 2019
Temperature: 17.0°C (63°F)
Dewpoint: 13.0°C (55°F) [RH = 77%]
Pressure (altimeter): 30.15 inches Hg (1021.0 mb)
Winds: from the S (190 degrees) at 8 MPH (7 knots; 3.6 m/s)
Visibility: 6 or more miles (10+ km)
Ceiling: ceiling and visibility are OK
Clouds: unknown
Weather: no significant weather observed at this time

METAR text: FMEE 232130Z AUTO 18006KT CAVOK 17/13 Q1021 NOSIG
Conditions at: FMEE (ST. DENIS/GILLOT, FR) observed 2130 UTC 23 August 2019
Temperature: 17.0°C (63°F)
Dewpoint: 13.0°C (55°F) [RH = 77%]
Pressure (altimeter): 30.15 inches Hg (1021.0 mb)
Winds: from the S (180 degrees) at 7 MPH (6 knots; 3.1 m/s)
Visibility: 6 or more miles (10+ km)
Ceiling: ceiling and visibility are OK
Clouds: unknown
Weather: no significant weather observed at this time

METAR text: FMEE 232100Z AUTO 18005KT CAVOK 17/13 Q1021 NOSIG
Conditions at: FMEE (ST. DENIS/GILLOT, FR) observed 2100 UTC 23 August 2019
Temperature: 17.0°C (63°F)
Dewpoint: 13.0°C (55°F) [RH = 77%]
Pressure (altimeter): 30.15 inches Hg (1021.0 mb)
Winds: from the S (180 degrees) at 6 MPH (5 knots; 2.6 m/s)
Visibility: 6 or more miles (10+ km)
Ceiling: ceiling and visibility are OK
Clouds: unknown
Weather: no significant weather observed at this time

METAR text: FMEE 232030Z AUTO 18005KT CAVOK 17/13 Q1021 NOSIG
Conditions at: FMEE (ST. DENIS/GILLOT, FR) observed 2030 UTC 23 August 2019
Temperature: 17.0°C (63°F)
Dewpoint: 13.0°C (55°F) [RH = 77%]
Pressure (altimeter): 30.15 inches Hg (1021.0 mb)
Winds: from the S (180 degrees) at 6 MPH (5 knots; 2.6 m/s)
Visibility: 6 or more miles (10+ km)
Ceiling: ceiling and visibility are OK
Clouds: unknown
Weather: no significant weather observed at this time

METAR text: FMEE 232000Z AUTO 19006KT CAVOK 17/14 Q1021 NOSIG
Conditions at: FMEE (ST. DENIS/GILLOT, FR) observed 2000 UTC 23 August 2019
Temperature: 17.0°C (63°F)
Dewpoint: 14.0°C (57°F) [RH = 82%]
Pressure (altimeter): 30.15 inches Hg (1021.0 mb)
Winds: from the S (190 degrees) at 7 MPH (6 knots; 3.1 m/s)
Visibility: 6 or more miles (10+ km)
Ceiling: ceiling and visibility are OK
Clouds: unknown
Weather: no significant weather observed at this time

METAR text: FMEE 231930Z AUTO 18004KT CAVOK 17/14 Q1022 NOSIG
Conditions at: FMEE (ST. DENIS/GILLOT, FR) observed 1930 UTC 23 August 2019
Temperature: 17.0°C (63°F)
Dewpoint: 14.0°C (57°F) [RH = 82%]
Pressure (altimeter): 30.18 inches Hg (1022.0 mb)
Winds: from the S (180 degrees) at 5 MPH (4 knots; 2.1 m/s)
Visibility: 6 or more miles (10+ km)
Ceiling: ceiling and visibility are OK
Clouds: unknown
Weather: no significant weather observed at this time

METAR text: FMEE 231900Z AUTO 18005KT CAVOK 17/14 Q1022 NOSIG
Conditions at: FMEE (ST. DENIS/GILLOT, FR) observed 1900 UTC 23 August 2019
Temperature: 17.0°C (63°F)
Dewpoint: 14.0°C (57°F) [RH = 82%]
Pressure (altimeter): 30.18 inches Hg (1022.0 mb)
Winds: from the S (180 degrees) at 6 MPH (5 knots; 2.6 m/s)
Visibility: 6 or more miles (10+ km)
Ceiling: ceiling and visibility are OK
Clouds: unknown
Weather: no significant weather observed at this time

METAR text: FMEE 231830Z AUTO 17006KT CAVOK 18/14 Q1022 NOSIG
Conditions at: FMEE (ST. DENIS/GILLOT, FR) observed 1830 UTC 23 August 2019
Temperature: 18.0°C (64°F)
Dewpoint: 14.0°C (57°F) [RH = 77%]
Pressure (altimeter): 30.18 inches Hg (1022.0 mb)
Winds: from the S (170 degrees) at 7 MPH (6 knots; 3.1 m/s)
Visibility: 6 or more miles (10+ km)
Ceiling: ceiling and visibility are OK
Clouds: unknown
Weather: no significant weather observed at this time

METAR text: FMEE 231800Z AUTO 18006KT CAVOK 18/14 Q1022 NOSIG
Conditions at: FMEE (ST. DENIS/GILLOT, FR) observed 1800 UTC 23 August 2019
Temperature: 18.0°C (64°F)
Dewpoint: 14.0°C (57°F) [RH = 77%]
Pressure (altimeter): 30.18 inches Hg (1022.0 mb)
Winds: from the S (180 degrees) at 7 MPH (6 knots; 3.1 m/s)
Visibility: 6 or more miles (10+ km)
Ceiling: ceiling and visibility are OK
Clouds: unknown
Weather: no significant weather observed at this time

METAR text: FMEE 231730Z AUTO 18005KT 140V200 CAVOK 18/14 Q1022 NOSIG
Conditions at: FMEE (ST. DENIS/GILLOT, FR) observed 1730 UTC 23 August 2019
Temperature: 18.0°C (64°F)
Dewpoint: 14.0°C (57°F) [RH = 77%]
Pressure (altimeter): 30.18 inches Hg (1022.0 mb)
Winds: from the S (180 degrees) at 6 MPH (5 knots; 2.6 m/s)
Visibility: 6 or more miles (10+ km)
Ceiling: ceiling and visibility are OK
Clouds: unknown
Weather: no significant weather observed at this time

METAR text: FMEE 231700Z AUTO 17004KT CAVOK 19/15 Q1022 NOSIG
Conditions at: FMEE (ST. DENIS/GILLOT, FR) observed 1700 UTC 23 August 2019
Temperature: 19.0°C (66°F)
Dewpoint: 15.0°C (59°F) [RH = 78%]
Pressure (altimeter): 30.18 inches Hg (1022.0 mb)
Winds: from the S (170 degrees) at 5 MPH (4 knots; 2.1 m/s)
Visibility: 6 or more miles (10+ km)
Ceiling: ceiling and visibility are OK
Clouds: unknown
Weather: no significant weather observed at this time

METAR text: FMEE 231630Z AUTO 18004KT CAVOK 20/15 Q1022 NOSIG
Conditions at: FMEE (ST. DENIS/GILLOT, FR) observed 1630 UTC 23 August 2019
Temperature: 20.0°C (68°F)
Dewpoint: 15.0°C (59°F) [RH = 73%]
Pressure (altimeter): 30.18 inches Hg (1022.0 mb)
Winds: from the S (180 degrees) at 5 MPH (4 knots; 2.1 m/s)
Visibility: 6 or more miles (10+ km)
Ceiling: ceiling and visibility are OK
Clouds: unknown
Weather: no significant weather observed at this time

METAR text: FMEE 231600Z AUTO 12006KT CAVOK 21/16 Q1021 NOSIG
Conditions at: FMEE (ST. DENIS/GILLOT, FR) observed 1600 UTC 23 August 2019
Temperature: 21.0°C (70°F)
Dewpoint: 16.0°C (61°F) [RH = 73%]
Pressure (altimeter): 30.15 inches Hg (1021.0 mb)
Winds: from the ESE (120 degrees) at 7 MPH (6 knots; 3.1 m/s)
Visibility: 6 or more miles (10+ km)
Ceiling: ceiling and visibility are OK
Clouds: unknown
Weather: no significant weather observed at this time

METAR text: FMEE 231530Z AUTO 11007KT 9999 BKN054 21/16 Q1021 NOSIG
Conditions at: FMEE (ST. DENIS/GILLOT, FR) observed 1530 UTC 23 August 2019
Temperature: 21.0°C (70°F)
Dewpoint: 16.0°C (61°F) [RH = 73%]
Pressure (altimeter): 30.15 inches Hg (1021.0 mb)
Winds: from the ESE (110 degrees) at 8 MPH (7 knots; 3.6 m/s)
Visibility: 6 or more miles (10+ km)
Ceiling: 5400 feet AGL
Clouds: broken clouds at 5400 feet AGL
Weather: no significant weather observed at this time

METAR text: FMEE 231500Z AUTO 11007KT 9999 OVC056 21/16 Q1021 NOSIG
Conditions at: FMEE (ST. DENIS/GILLOT, FR) observed 1500 UTC 23 August 2019
Temperature: 21.0°C (70°F)
Dewpoint: 16.0°C (61°F) [RH = 73%]
Pressure (altimeter): 30.15 inches Hg (1021.0 mb)
Winds: from the ESE (110 degrees) at 8 MPH (7 knots; 3.6 m/s)
Visibility: 6 or more miles (10+ km)
Ceiling: 5600 feet AGL
Clouds: overcast cloud deck at 5600 feet AGL
Weather: no significant weather observed at this time

METAR text: FMEE 231430Z AUTO 11008KT 9999 OVC054 22/16 Q1021 NOSIG
Conditions at: FMEE (ST. DENIS/GILLOT, FR) observed 1430 UTC 23 August 2019
Temperature: 22.0°C (72°F)
Dewpoint: 16.0°C (61°F) [RH = 69%]
Pressure (altimeter): 30.15 inches Hg (1021.0 mb)
Winds: from the ESE (110 degrees) at 9 MPH (8 knots; 4.1 m/s)
Visibility: 6 or more miles (10+ km)
Ceiling: 5400 feet AGL
Clouds: overcast cloud deck at 5400 feet AGL
Weather: no significant weather observed at this time

METAR text: FMEE 231400Z AUTO 11009KT 9999 OVC054 22/16 Q1020 NOSIG
Conditions at: FMEE (ST. DENIS/GILLOT, FR) observed 1400 UTC 23 August 2019
Temperature: 22.0°C (72°F)
Dewpoint: 16.0°C (61°F) [RH = 69%]
Pressure (altimeter): 30.12 inches Hg (1020.0 mb)
Winds: from the ESE (110 degrees) at 10 MPH (9 knots; 4.6 m/s)
Visibility: 6 or more miles (10+ km)
Ceiling: 5400 feet AGL
Clouds: overcast cloud deck at 5400 feet AGL
Weather: no significant weather observed at this time

METAR text: FMEE 231330Z AUTO 11011KT 9999 OVC054 23/16 Q1020 NOSIG
Conditions at: FMEE (ST. DENIS/GILLOT, FR) observed 1330 UTC 23 August 2019
Temperature: 23.0°C (73°F)
Dewpoint: 16.0°C (61°F) [RH = 65%]
Pressure (altimeter): 30.12 inches Hg (1020.0 mb)
Winds: from the ESE (110 degrees) at 13 MPH (11 knots; 5.7 m/s)
Visibility: 6 or more miles (10+ km)
Ceiling: 5400 feet AGL
Clouds: overcast cloud deck at 5400 feet AGL
Weather: no significant weather observed at this time

METAR text: FMEE 231300Z AUTO 11011KT 9999 OVC052 23/16 Q1020 NOSIG
Conditions at: FMEE (ST. DENIS/GILLOT, FR) observed 1300 UTC 23 August 2019
Temperature: 23.0°C (73°F)
Dewpoint: 16.0°C (61°F) [RH = 65%]
Pressure (altimeter): 30.12 inches Hg (1020.0 mb)
Winds: from the ESE (110 degrees) at 13 MPH (11 knots; 5.7 m/s)
Visibility: 6 or more miles (10+ km)
Ceiling: 5200 feet AGL
Clouds: overcast cloud deck at 5200 feet AGL
Weather: no significant weather observed at this time

METAR text: FMEE 231230Z AUTO 10012KT 9999 OVC049 23/16 Q1020 BECMG 16006KT
Conditions at: FMEE (ST. DENIS/GILLOT, FR) observed 1230 UTC 23 August 2019
Temperature: 23.0°C (73°F)
Dewpoint: 16.0°C (61°F) [RH = 65%]
Pressure (altimeter): 30.12 inches Hg (1020.0 mb)
Winds: from the E (100 degrees) at 14 MPH (12 knots; 6.2 m/s)
Visibility: 6 or more miles (10+ km)
Ceiling: 4900 feet AGL
Clouds: overcast cloud deck at 4900 feet AGL
Weather: no significant weather observed at this time

METAR text: FMEE 231200Z AUTO 10011KT 9999 OVC050 23/16 Q1020 NOSIG
Conditions at: FMEE (ST. DENIS/GILLOT, FR) observed 1200 UTC 23 August 2019
Temperature: 23.0°C (73°F)
Dewpoint: 16.0°C (61°F) [RH = 65%]
Pressure (altimeter): 30.12 inches Hg (1020.0 mb)
Winds: from the E (100 degrees) at 13 MPH (11 knots; 5.7 m/s)
Visibility: 6 or more miles (10+ km)
Ceiling: 5000 feet AGL
Clouds: overcast cloud deck at 5000 feet AGL
Weather: no significant weather observed at this time

METAR text: FMEE 231130Z AUTO 11011KT 9999 OVC050 24/16 Q1020 NOSIG
Conditions at: FMEE (ST. DENIS/GILLOT, FR) observed 1130 UTC 23 August 2019
Temperature: 24.0°C (75°F)
Dewpoint: 16.0°C (61°F) [RH = 61%]
Pressure (altimeter): 30.12 inches Hg (1020.0 mb)
Winds: from the ESE (110 degrees) at 13 MPH (11 knots; 5.7 m/s)
Visibility: 6 or more miles (10+ km)
Ceiling: 5000 feet AGL
Clouds: overcast cloud deck at 5000 feet AGL
Weather: no significant weather observed at this time

METAR text: FMEE 231100Z AUTO 09012KT 9999 FEW038 OVC052 25/16 Q1020 NOSIG
Conditions at: FMEE (ST. DENIS/GILLOT, FR) observed 1100 UTC 23 August 2019
Temperature: 25.0°C (77°F)
Dewpoint: 16.0°C (61°F) [RH = 57%]
Pressure (altimeter): 30.12 inches Hg (1020.0 mb)
Winds: from the E (90 degrees) at 14 MPH (12 knots; 6.2 m/s)
Visibility: 6 or more miles (10+ km)
Ceiling: 5200 feet AGL
Clouds: few clouds at 3800 feet AGL
overcast cloud deck at 5200 feet AGL
Weather: no significant weather observed at this time

METAR text: FMEE 231030Z AUTO 08014KT 9999 FEW039 OVC052 25/16 Q1020 NOSIG
Conditions at: FMEE (ST. DENIS/GILLOT, FR) observed 1030 UTC 23 August 2019
Temperature: 25.0°C (77°F)
Dewpoint: 16.0°C (61°F) [RH = 57%]
Pressure (altimeter): 30.12 inches Hg (1020.0 mb)
Winds: from the E (80 degrees) at 16 MPH (14 knots; 7.2 m/s)
Visibility: 6 or more miles (10+ km)
Ceiling: 5200 feet AGL
Clouds: few clouds at 3900 feet AGL
overcast cloud deck at 5200 feet AGL
Weather: no significant weather observed at this time

METAR text: FMEE 231000Z AUTO 08014KT 9999 OVC050 25/15 Q1020 NOSIG
Conditions at: FMEE (ST. DENIS/GILLOT, FR) observed 1000 UTC 23 August 2019
Temperature: 25.0°C (77°F)
Dewpoint: 15.0°C (59°F) [RH = 54%]
Pressure (altimeter): 30.12 inches Hg (1020.0 mb)
Winds: from the E (80 degrees) at 16 MPH (14 knots; 7.2 m/s)
Visibility: 6 or more miles (10+ km)
Ceiling: 5000 feet AGL
Clouds: overcast cloud deck at 5000 feet AGL
Weather: no significant weather observed at this time

METAR text: FMEE 230930Z AUTO 08017KT 9999 OVC050 25/15 Q1020 NOSIG
Conditions at: FMEE (ST. DENIS/GILLOT, FR) observed 0930 UTC 23 August 2019
Temperature: 25.0°C (77°F)
Dewpoint: 15.0°C (59°F) [RH = 54%]
Pressure (altimeter): 30.12 inches Hg (1020.0 mb)
Winds: from the E (80 degrees) at 20 MPH (17 knots; 8.7 m/s)
Visibility: 6 or more miles (10+ km)
Ceiling: 5000 feet AGL
Clouds: overcast cloud deck at 5000 feet AGL
Weather: no significant weather observed at this time

METAR text: FMEE 230900Z AUTO 08016KT 9999 BKN052 26/15 Q1020 NOSIG
Conditions at: FMEE (ST. DENIS/GILLOT, FR) observed 0900 UTC 23 August 2019
Temperature: 26.0°C (79°F)
Dewpoint: 15.0°C (59°F) [RH = 51%]
Pressure (altimeter): 30.12 inches Hg (1020.0 mb)
Winds: from the E (80 degrees) at 18 MPH (16 knots; 8.2 m/s)
Visibility: 6 or more miles (10+ km)
Ceiling: 5200 feet AGL
Clouds: broken clouds at 5200 feet AGL
Weather: no significant weather observed at this time

METAR text: FMEE 230830Z AUTO 08017KT 9999 BKN052 26/16 Q1020 NOSIG
Conditions at: FMEE (ST. DENIS/GILLOT, FR) observed 0830 UTC 23 August 2019
Temperature: 26.0°C (79°F)
Dewpoint: 16.0°C (61°F) [RH = 54%]
Pressure (altimeter): 30.12 inches Hg (1020.0 mb)
Winds: from the E (80 degrees) at 20 MPH (17 knots; 8.7 m/s)
Visibility: 6 or more miles (10+ km)
Ceiling: 5200 feet AGL
Clouds: broken clouds at 5200 feet AGL
Weather: no significant weather observed at this time

METAR text: FMEE 230800Z AUTO 08016KT 9999 BKN052 26/15 Q1021 NOSIG
Conditions at: FMEE (ST. DENIS/GILLOT, FR) observed 0800 UTC 23 August 2019
Temperature: 26.0°C (79°F)
Dewpoint: 15.0°C (59°F) [RH = 51%]
Pressure (altimeter): 30.15 inches Hg (1021.0 mb)
Winds: from the E (80 degrees) at 18 MPH (16 knots; 8.2 m/s)
Visibility: 6 or more miles (10+ km)
Ceiling: 5200 feet AGL
Clouds: broken clouds at 5200 feet AGL
Weather: no significant weather observed at this time

METAR text: FMEE 230730Z AUTO 08014KT 9999 SCT052 26/16 Q1021 NOSIG
Conditions at: FMEE (ST. DENIS/GILLOT, FR) observed 0730 UTC 23 August 2019
Temperature: 26.0°C (79°F)
Dewpoint: 16.0°C (61°F) [RH = 54%]
Pressure (altimeter): 30.15 inches Hg (1021.0 mb)
Winds: from the E (80 degrees) at 16 MPH (14 knots; 7.2 m/s)
Visibility: 6 or more miles (10+ km)
Ceiling: at least 12,000 feet AGL
Clouds: scattered clouds at 5200 feet AGL
Weather: no significant weather observed at this time

METAR text: FMEE 230700Z AUTO 08013KT 9999 BKN054 26/16 Q1021 NOSIG
Conditions at: FMEE (ST. DENIS/GILLOT, FR) observed 0700 UTC 23 August 2019
Temperature: 26.0°C (79°F)
Dewpoint: 16.0°C (61°F) [RH = 54%]
Pressure (altimeter): 30.15 inches Hg (1021.0 mb)
Winds: from the E (80 degrees) at 15 MPH (13 knots; 6.7 m/s)
Visibility: 6 or more miles (10+ km)
Ceiling: 5400 feet AGL
Clouds: broken clouds at 5400 feet AGL
Weather: no significant weather observed at this time

METAR text: FMEE 230630Z AUTO 07010KT CAVOK 26/13 Q1021 NOSIG
Conditions at: FMEE (ST. DENIS/GILLOT, FR) observed 0630 UTC 23 August 2019
Temperature: 26.0°C (79°F)
Dewpoint: 13.0°C (55°F) [RH = 45%]
Pressure (altimeter): 30.15 inches Hg (1021.0 mb)
Winds: from the ENE (70 degrees) at 12 MPH (10 knots; 5.1 m/s)
Visibility: 6 or more miles (10+ km)
Ceiling: ceiling and visibility are OK
Clouds: unknown
Weather: no significant weather observed at this time

METAR text: FMEE 230600Z AUTO 07009KT CAVOK 25/13 Q1021 NOSIG
Conditions at: FMEE (ST. DENIS/GILLOT, FR) observed 0600 UTC 23 August 2019
Temperature: 25.0°C (77°F)
Dewpoint: 13.0°C (55°F) [RH = 47%]
Pressure (altimeter): 30.15 inches Hg (1021.0 mb)
Winds: from the ENE (70 degrees) at 10 MPH (9 knots; 4.6 m/s)
Visibility: 6 or more miles (10+ km)
Ceiling: ceiling and visibility are OK
Clouds: unknown
Weather: no significant weather observed at this time

METAR text: FMEE 230530Z AUTO 08010KT CAVOK 25/14 Q1021 NOSIG
Conditions at: FMEE (ST. DENIS/GILLOT, FR) observed 0530 UTC 23 August 2019
Temperature: 25.0°C (77°F)
Dewpoint: 14.0°C (57°F) [RH = 50%]
Pressure (altimeter): 30.15 inches Hg (1021.0 mb)
Winds: from the E (80 degrees) at 12 MPH (10 knots; 5.1 m/s)
Visibility: 6 or more miles (10+ km)
Ceiling: ceiling and visibility are OK
Clouds: unknown
Weather: no significant weather observed at this time

METAR text: FMEE 230500Z AUTO 08009KT CAVOK 24/13 Q1022 NOSIG
Conditions at: FMEE (ST. DENIS/GILLOT, FR) observed 0500 UTC 23 August 2019
Temperature: 24.0°C (75°F)
Dewpoint: 13.0°C (55°F) [RH = 50%]
Pressure (altimeter): 30.18 inches Hg (1022.0 mb)
Winds: from the E (80 degrees) at 10 MPH (9 knots; 4.6 m/s)
Visibility: 6 or more miles (10+ km)
Ceiling: ceiling and visibility are OK
Clouds: unknown
Weather: no significant weather observed at this time

METAR text: FMEE 230430Z AUTO 04003KT CAVOK 23/17 Q1021 NOSIG
Conditions at: FMEE (ST. DENIS/GILLOT, FR) observed 0430 UTC 23 August 2019
Temperature: 23.0°C (73°F)
Dewpoint: 17.0°C (63°F) [RH = 69%]
Pressure (altimeter): 30.15 inches Hg (1021.0 mb)
Winds: from the NE (40 degrees) at 3 MPH (3 knots; 1.5 m/s)
Visibility: 6 or more miles (10+ km)
Ceiling: ceiling and visibility are OK
Clouds: unknown
Weather: no significant weather observed at this time

METAR text: FMEE 230400Z AUTO 17004KT CAVOK 21/15 Q1021 BECMG 08012KT
Conditions at: FMEE (ST. DENIS/GILLOT, FR) observed 0400 UTC 23 August 2019
Temperature: 21.0°C (70°F)
Dewpoint: 15.0°C (59°F) [RH = 69%]
Pressure (altimeter): 30.15 inches Hg (1021.0 mb)
Winds: from the S (170 degrees) at 5 MPH (4 knots; 2.1 m/s)
Visibility: 6 or more miles (10+ km)
Ceiling: ceiling and visibility are OK
Clouds: unknown
Weather: no significant weather observed at this time

METAR text: FMEE 230330Z AUTO 18007KT CAVOK 19/15 Q1021 BECMG 08012KT
Conditions at: FMEE (ST. DENIS/GILLOT, FR) observed 0330 UTC 23 August 2019
Temperature: 19.0°C (66°F)
Dewpoint: 15.0°C (59°F) [RH = 78%]
Pressure (altimeter): 30.15 inches Hg (1021.0 mb)
Winds: from the S (180 degrees) at 8 MPH (7 knots; 3.6 m/s)
Visibility: 6 or more miles (10+ km)
Ceiling: ceiling and visibility are OK
Clouds: unknown
Weather: no significant weather observed at this time

METAR text: FMEE 230300Z AUTO 18007KT CAVOK 18/14 Q1021 BECMG 08012KT
Conditions at: FMEE (ST. DENIS/GILLOT, FR) observed 0300 UTC 23 August 2019
Temperature: 18.0°C (64°F)
Dewpoint: 14.0°C (57°F) [RH = 77%]
Pressure (altimeter): 30.15 inches Hg (1021.0 mb)
Winds: from the S (180 degrees) at 8 MPH (7 knots; 3.6 m/s)
Visibility: 6 or more miles (10+ km)
Ceiling: ceiling and visibility are OK
Clouds: unknown
Weather: no significant weather observed at this time

METAR text: FMEE 230230Z AUTO 18006KT 9999 BKN046 18/13 Q1021 BECMG 08012KT
Conditions at: FMEE (ST. DENIS/GILLOT, FR) observed 0230 UTC 23 August 2019
Temperature: 18.0°C (64°F)
Dewpoint: 13.0°C (55°F) [RH = 73%]
Pressure (altimeter): 30.15 inches Hg (1021.0 mb)
Winds: from the S (180 degrees) at 7 MPH (6 knots; 3.1 m/s)
Visibility: 6 or more miles (10+ km)
Ceiling: 4600 feet AGL
Clouds: broken clouds at 4600 feet AGL
Weather: no significant weather observed at this time

Forecast for: FMEE (ST. DENIS/GILLOT, FR)
Text: TAF FMEE 241100Z 2412/2518 07014KT 9999 FEW026
Forecast period: 1200 to 1400 UTC 24 August 2019
Forecast type: FROM: standard forecast or significant change
Winds: from the ENE (70 degrees) at 16 MPH (14 knots; 7.2 m/s)
Visibility: 6 or more miles 10+ km)
Ceiling: at least 12,000 feet AGL
Clouds: few clouds at 2600 feet AGL
Weather: no significant weather forecast for this period
Text: BECMG 2414/2416 14008KT
Forecast period: 1400 UTC 24 August 2019 to 0400 UTC 25 August 2019
Forecast type: BECOMING: Conditions expected to become as follows by 1600 UTC 24 August 2019
Winds: from the SE (140 degrees) at 9 MPH (8 knots; 4.1 m/s)
Visibility: 6 or more miles 10+ km)
Ceiling: at least 12,000 feet AGL
Clouds: few clouds at 2600 feet AGL
Weather: no significant weather forecast for this period
Text: BECMG 2504/2506 12018G28KT
Forecast period: 0400 to 1800 UTC 25 August 2019
Forecast type: BECOMING: Conditions expected to become as follows by 0600 UTC 25 August 2019
Winds: from the ESE (120 degrees) at 21 MPH (18 knots; 9.3 m/s)
gusting to 32 MPH (28 knots; 14.4 m/s)
Visibility: 6 or more miles 10+ km)
Ceiling: at least 12,000 feet AGL
Clouds: few clouds at 2600 feet AGL
Weather: no significant weather forecast for this period